OICS  Sanandaj  Airport

Iran

Add Bookmark
ICAO OICS
IATA SDG
Type Airport
Status Operational
Latitude
35° 14' 45" N
35.245899
Longitude
47° 0' 33" E
47.009201
Local (GMT +3.5 ) UTC
Dec 6, 2016 04:17 am Dec 6, 2016 00:47
Sunrise-Sunset Local UTC
Begin Civil Twilight 06:47 am 03:17
Sunrise 07:15 am 03:45
Sunset 05:10 pm 13:40
End Civil Twilight 05:38 pm 14:08
VFR
VFR
MVFR
MVFR
IFR
IFR
LIFR
LIFR
Unknown
No Data

Current Weather

METAR Observed VFR
OICS 051400Z 19006KT 9999 FEW040 11/02 Q1019 Mon, Dec 5, 2016 @ 14:00 UTC
(10 Hours, 47 Minutes ago)
Visual Flight Rules
Wind Visibility Clouds Conditions
190° at 6 knots (11 kph) 10 km or more
  • Few at 4,000 ft AGL
  • No significant weather
Temperatures Readings Precipitation
Current Temp
11°C
52°F
Dewpoint
2°C
36°F
Humidity 54%
Altimeter 30.09" Hg
Sea Level Pressure 1,019 mb
Field Elevation
1,373 m
4,505 ft
None Recorded
-
-

CheckWX.com is intended as a tool to help pilots better visualize weather data. It is not intended as a substitute for an official weather briefing obtained from a Flight Service Station. CheckWX.com does not meet the FAA requirements for an official pre-flight weather briefing. Therefore, it's important that pilots still call and obtain an official FSS pre-flight weather briefing.

© 2007-2016 CheckWX.com
00:47:17 UTC